createdAt,value
2018-11-22T12:17:55.373Z,21.90
2018-11-22T12:20:22.049Z,21.90
2018-11-22T12:22:49.955Z,21.80
2018-11-22T12:25:19.868Z,21.90
2018-11-22T12:27:47.799Z,21.80
2018-11-22T12:30:15.803Z,21.80
2018-11-22T12:32:47.039Z,21.70
2018-11-22T12:35:19.258Z,21.70
2018-11-22T12:37:51.771Z,21.70
2018-11-22T12:40:18.208Z,21.70
2018-11-22T12:42:44.635Z,21.70
2018-11-22T12:45:11.079Z,21.60
2018-11-22T12:47:37.519Z,21.70
2018-11-22T12:50:03.965Z,21.70
2018-11-22T12:52:30.430Z,21.80
2018-11-22T12:54:57.985Z,21.80
2018-11-22T12:57:24.928Z,21.80
2018-11-22T12:59:51.385Z,21.90
2018-11-22T13:02:18.760Z,21.90
2018-11-22T13:04:45.083Z,21.90
2018-11-22T13:07:11.519Z,21.90
2018-11-22T13:09:37.993Z,21.90
2018-11-22T13:12:04.473Z,21.90
2018-11-22T13:14:30.923Z,21.90
2018-11-22T13:16:57.373Z,22.00
2018-11-22T13:19:23.834Z,22.00
2018-11-22T13:21:50.280Z,22.10
2018-11-22T13:24:16.763Z,22.10
2018-11-22T13:26:43.238Z,22.20
2018-11-22T13:29:09.822Z,22.20
2018-11-22T13:31:36.277Z,22.30
2018-11-22T13:34:02.778Z,22.30
2018-11-22T13:36:29.225Z,22.20
2018-11-22T13:38:55.779Z,22.20
2018-11-22T13:41:22.237Z,22.10
2018-11-22T13:43:48.665Z,22.10
2018-11-22T13:46:15.106Z,22.00
2018-11-22T13:48:41.523Z,22.00
2018-11-22T13:51:07.947Z,22.00
2018-11-22T13:53:34.518Z,21.90
2018-11-22T13:56:00.969Z,21.90
2018-11-22T13:58:27.437Z,21.80
2018-11-22T14:00:53.866Z,21.90
2018-11-22T14:03:20.325Z,21.90
2018-11-22T14:05:46.757Z,21.80
2018-11-22T14:08:13.168Z,21.80
2018-11-22T14:10:39.591Z,21.80
2018-11-22T14:13:06.114Z,21.70
2018-11-22T14:15:32.572Z,21.70
2018-11-22T14:18:00.587Z,21.70
2018-11-22T14:20:29.358Z,21.70
2018-11-22T14:22:55.803Z,21.70
2018-11-22T14:25:22.260Z,21.70
2018-11-22T14:27:50.718Z,21.60
2018-11-22T14:30:20.389Z,21.60
2018-11-22T14:32:47.821Z,21.60
2018-11-22T14:35:15.607Z,21.60
2018-11-22T14:37:42.581Z,21.60
2018-11-22T14:40:10.282Z,21.50
2018-11-22T14:42:36.866Z,21.50
2018-11-22T14:45:03.516Z,21.50
2018-11-22T14:47:29.968Z,21.50
2018-11-22T14:49:56.405Z,21.50
2018-11-22T14:52:22.843Z,21.50
2018-11-22T14:54:49.305Z,21.40
2018-11-22T14:57:15.781Z,21.50
2018-11-22T14:59:42.227Z,21.50
2018-11-22T15:02:08.657Z,21.70
2018-11-22T15:04:35.099Z,21.70
2018-11-22T15:07:01.552Z,21.70
2018-11-22T15:09:27.989Z,21.90
2018-11-22T15:11:54.471Z,21.90
2018-11-22T15:14:21.047Z,21.90
2018-11-22T15:16:48.140Z,22.00
2018-11-22T15:19:14.667Z,22.00
2018-11-22T15:21:41.189Z,22.10
2018-11-22T15:24:07.674Z,22.10
2018-11-22T15:26:34.448Z,22.20
2018-11-22T15:29:00.958Z,22.20
2018-11-22T15:31:27.422Z,22.20
2018-11-22T15:33:54.078Z,22.30
2018-11-22T15:36:20.586Z,22.20
2018-11-22T15:38:47.257Z,22.20
2018-11-22T15:41:13.974Z,22.20
2018-11-22T15:43:40.486Z,22.20
2018-11-22T15:46:06.913Z,22.20
2018-11-22T15:48:33.402Z,22.20
2018-11-22T15:50:59.958Z,22.20
2018-11-22T15:53:26.694Z,22.30
2018-11-22T15:55:53.426Z,22.30
2018-11-22T15:58:20.160Z,22.30
2018-11-22T16:00:46.896Z,22.30
2018-11-22T16:03:13.566Z,22.40
2018-11-22T16:05:40.050Z,22.40
2018-11-22T16:08:06.788Z,22.50
2018-11-22T16:10:34.998Z,22.50
2018-11-22T16:13:01.630Z,22.50
2018-11-22T16:15:28.165Z,22.50
2018-11-22T16:17:54.959Z,22.60
2018-11-22T16:20:21.593Z,22.60
2018-11-22T16:22:48.156Z,22.60
2018-11-22T16:25:14.858Z,22.60
2018-11-22T16:27:41.489Z,22.60
2018-11-22T16:30:08.221Z,22.60
2018-11-22T16:32:34.764Z,22.60
2018-11-22T16:35:01.243Z,22.70
2018-11-22T16:37:27.721Z,22.70
2018-11-22T16:39:54.381Z,22.70
2018-11-22T16:42:20.972Z,22.70
2018-11-22T16:44:47.402Z,22.70
2018-11-22T16:47:13.864Z,22.80
2018-11-22T16:49:40.312Z,22.70
2018-11-22T16:52:06.769Z,22.80
2018-11-22T16:54:33.224Z,22.80
2018-11-22T16:57:00.267Z,22.80
2018-11-22T16:59:26.697Z,22.80
2018-11-22T17:01:53.128Z,22.80
2018-11-22T17:04:19.879Z,22.80
2018-11-22T17:06:46.342Z,22.70
2018-11-22T17:09:12.833Z,22.70
2018-11-22T17:11:39.274Z,22.70
2018-11-22T17:14:05.751Z,22.70
2018-11-22T17:16:32.194Z,22.70
2018-11-22T17:18:58.643Z,22.70
2018-11-22T17:21:25.121Z,22.70
2018-11-22T17:23:51.590Z,22.70
2018-11-22T17:26:18.352Z,22.70
2018-11-22T17:28:44.810Z,22.80
2018-11-22T17:31:11.243Z,22.80
2018-11-22T17:33:37.678Z,22.80
2018-11-22T17:36:04.156Z,22.90
2018-11-22T17:38:30.626Z,22.80
2018-11-22T17:40:57.098Z,22.90
2018-11-22T17:43:23.586Z,22.90
2018-11-22T17:45:51.271Z,22.80
2018-11-22T17:48:17.724Z,22.90
2018-11-22T17:50:45.449Z,22.90
2018-11-22T17:53:12.191Z,22.90
2018-11-22T17:55:38.711Z,22.90
2018-11-22T17:58:05.149Z,22.90
2018-11-22T18:00:34.187Z,22.90
2018-11-22T18:03:01.615Z,22.90
2018-11-22T18:05:28.236Z,22.90
2018-11-22T18:07:54.796Z,23.00
2018-11-22T18:10:22.615Z,23.00
2018-11-22T18:12:49.787Z,23.00
2018-11-22T18:15:17.472Z,23.00
2018-11-22T18:17:44.233Z,23.00
2018-11-22T18:20:12.017Z,23.00
2018-11-22T18:22:38.729Z,23.00
2018-11-22T18:25:05.166Z,23.00
2018-11-22T18:27:31.629Z,23.00
2018-11-22T18:29:58.094Z,23.00
2018-11-22T18:32:24.585Z,23.00
2018-11-22T18:34:51.026Z,22.90
2018-11-22T18:37:17.522Z,22.90
2018-11-22T18:39:44.022Z,22.90
2018-11-22T18:42:10.461Z,22.90
2018-11-22T18:44:36.947Z,22.90
2018-11-22T18:47:03.470Z,23.00
2018-11-22T18:49:29.963Z,23.00
2018-11-22T18:51:56.428Z,23.00
2018-11-22T18:54:22.876Z,23.00
2018-11-22T18:56:49.330Z,23.00
2018-11-22T18:59:16.311Z,23.10
2018-11-22T19:01:45.017Z,23.10
2018-11-22T19:04:09.391Z,23.10
2018-11-22T19:06:35.871Z,23.10
2018-11-22T19:09:02.424Z,23.10
2018-11-22T19:11:28.911Z,23.10
2018-11-22T19:13:55.390Z,23.20
2018-11-22T19:16:21.830Z,23.20
2018-11-22T19:18:48.609Z,23.20
2018-11-22T19:21:15.113Z,23.20
2018-11-22T19:23:41.585Z,23.10
2018-11-22T19:26:08.030Z,23.20
2018-11-22T19:28:34.445Z,23.20
2018-11-22T19:31:00.943Z,23.20
2018-11-22T19:33:27.416Z,23.10
2018-11-22T19:35:54.301Z,23.10
2018-11-22T19:38:20.754Z,23.10
2018-11-22T19:40:47.463Z,23.20
2018-11-22T19:43:14.002Z,23.20
2018-11-22T19:45:42.170Z,23.20
2018-11-22T19:48:08.919Z,23.20
2018-11-22T19:50:35.592Z,23.20
2018-11-22T19:53:03.256Z,23.20
2018-11-22T19:55:30.903Z,23.20
2018-11-22T19:57:58.972Z,23.20
2018-11-22T20:00:26.191Z,23.10
2018-11-22T20:02:53.507Z,23.10
2018-11-22T20:05:21.049Z,23.10
2018-11-22T20:07:49.462Z,23.10
2018-11-22T20:10:18.342Z,23.10
2018-11-22T20:12:44.847Z,23.10
2018-11-22T20:15:11.815Z,23.10
2018-11-22T20:17:38.480Z,23.10
2018-11-22T20:20:05.046Z,23.10
2018-11-22T20:22:31.771Z,23.10
2018-11-22T20:24:58.234Z,23.20
2018-11-22T20:27:24.835Z,23.20
2018-11-22T20:29:51.317Z,23.20
2018-11-22T20:32:17.771Z,23.20
2018-11-22T20:34:44.219Z,23.20
2018-11-22T20:37:10.734Z,23.20
2018-11-22T20:39:37.223Z,23.30
2018-11-22T20:42:03.666Z,23.30
2018-11-22T20:44:30.127Z,23.30
2018-11-22T20:46:56.551Z,23.30
2018-11-22T20:49:23.030Z,23.30
2018-11-22T20:51:49.518Z,23.30
2018-11-22T20:54:15.953Z,23.30
2018-11-22T20:56:42.418Z,23.30
2018-11-22T20:59:08.878Z,23.30
2018-11-22T21:01:35.294Z,23.40
2018-11-22T21:04:01.895Z,23.40
2018-11-22T21:06:28.372Z,23.30
2018-11-22T21:08:54.859Z,23.30
2018-11-22T21:11:21.306Z,23.30
2018-11-22T21:13:47.788Z,23.30
2018-11-22T21:16:14.212Z,23.20
2018-11-22T21:18:40.844Z,23.20
2018-11-22T21:21:07.909Z,23.10
2018-11-22T21:23:34.386Z,23.10
2018-11-22T21:26:00.838Z,23.00
2018-11-22T21:28:27.241Z,23.00
2018-11-22T21:30:54.269Z,23.00
2018-11-22T21:33:20.958Z,23.00
2018-11-22T21:35:47.409Z,22.90
2018-11-22T21:38:13.867Z,22.90
2018-11-22T21:40:40.312Z,22.80
2018-11-22T21:43:06.919Z,22.80
2018-11-22T21:45:34.632Z,22.80
2018-11-22T21:48:01.173Z,22.80
2018-11-22T21:50:28.166Z,22.70
2018-11-22T21:52:54.612Z,22.70
2018-11-22T21:55:22.423Z,22.70
2018-11-22T21:57:49.300Z,22.70
2018-11-22T22:00:17.128Z,22.70
2018-11-22T22:02:44.080Z,22.70
2018-11-22T22:05:10.809Z,22.70
2018-11-22T22:07:37.638Z,22.60
2018-11-22T22:10:04.118Z,22.60
2018-11-22T22:12:30.576Z,22.60
2018-11-22T22:14:57.002Z,22.60
2018-11-22T22:17:23.420Z,22.50
2018-11-22T22:19:49.869Z,22.50
2018-11-22T22:22:16.311Z,22.50
2018-11-22T22:24:42.790Z,22.50
2018-11-22T22:27:09.214Z,22.50
2018-11-22T22:29:35.677Z,22.40
2018-11-22T22:32:02.127Z,22.40
2018-11-22T22:34:28.559Z,22.40
2018-11-22T22:36:54.982Z,22.30
2018-11-22T22:39:21.420Z,22.30
2018-11-22T22:41:47.928Z,22.30
2018-11-22T22:44:14.413Z,22.30
2018-11-22T22:46:40.864Z,22.20
2018-11-22T22:49:07.312Z,22.20
2018-11-22T22:51:33.772Z,22.20
2018-11-22T22:54:00.207Z,22.10
2018-11-22T22:56:26.682Z,22.10
2018-11-22T22:58:53.363Z,22.10
2018-11-22T23:01:19.800Z,22.10
2018-11-22T23:03:46.240Z,22.10
2018-11-22T23:06:12.694Z,22.10
2018-11-22T23:11:18.439Z,22.30
2018-11-22T23:13:44.899Z,22.00
2018-11-22T23:16:11.347Z,22.00
2018-11-22T23:18:37.784Z,22.00
2018-11-22T23:21:04.241Z,22.00
2018-11-22T23:23:30.661Z,21.90
2018-11-22T23:25:57.066Z,21.90
2018-11-22T23:28:23.481Z,21.90
2018-11-22T23:30:49.922Z,21.90
2018-11-22T23:33:16.366Z,21.80
2018-11-22T23:35:42.855Z,21.90
2018-11-22T23:38:09.339Z,21.80
2018-11-22T23:40:35.769Z,21.80
2018-11-22T23:43:02.215Z,21.80
2018-11-22T23:45:29.892Z,21.80
2018-11-22T23:47:56.329Z,21.80
2018-11-22T23:50:24.116Z,21.80
2018-11-22T23:52:51.940Z,21.80
2018-11-22T23:55:18.390Z,21.80
2018-11-22T23:57:45.021Z,21.80
